createdAt,value
2022-11-27T00:01:43.406Z,7.36
2022-11-27T00:06:42.384Z,6.77
2022-11-27T00:11:41.337Z,7.24
2022-11-27T00:16:40.917Z,7.24
2022-11-27T00:21:39.800Z,7.57
2022-11-27T00:26:38.705Z,7.55
2022-11-27T00:31:38.119Z,7.43
2022-11-27T00:36:38.291Z,7.27
2022-11-27T00:41:37.823Z,7.43
2022-11-27T00:46:36.704Z,7.20
2022-11-27T00:51:36.001Z,7.08
2022-11-27T00:56:37.996Z,7.15
2022-11-27T01:01:42.647Z,7.37
2022-11-27T01:06:41.573Z,6.99
2022-11-27T01:11:41.139Z,7.05
2022-11-27T01:16:43.110Z,6.95
2022-11-27T01:21:42.526Z,6.71
2022-11-27T01:26:42.332Z,6.57
2022-11-27T01:31:41.311Z,6.74
2022-11-27T01:36:40.075Z,6.87
2022-11-27T01:41:40.011Z,6.48
2022-11-27T01:46:48.616Z,6.21
2022-11-27T01:51:53.555Z,6.01
2022-11-27T01:56:56.288Z,6.15
2022-11-27T02:01:55.079Z,6.25
2022-11-27T02:06:57.479Z,5.87
2022-11-27T02:12:07.971Z,5.83
2022-11-27T02:17:09.857Z,5.81
2022-11-27T02:22:15.885Z,5.62
2022-11-27T02:27:36.438Z,5.72
2022-11-27T02:32:47.081Z,5.79
2022-11-27T02:38:00.054Z,5.54
2022-11-27T02:43:20.350Z,5.33
2022-11-27T02:48:24.226Z,5.46
2022-11-27T02:53:52.237Z,4.88
2022-11-27T02:58:51.164Z,4.92
2022-11-27T03:03:55.385Z,4.66
2022-11-27T03:09:08.680Z,4.41
2022-11-27T03:14:10.383Z,4.25
2022-11-27T03:19:41.348Z,4.12
2022-11-27T03:24:40.316Z,4.03
2022-11-27T03:29:53.019Z,4.21
2022-11-27T03:34:52.267Z,4.09
2022-11-27T03:39:51.643Z,3.62
2022-11-27T03:45:08.640Z,4.05
2022-11-27T03:50:48.879Z,3.96
2022-11-27T03:55:53.413Z,3.72
2022-11-27T04:00:53.974Z,3.68
2022-11-27T04:05:53.105Z,3.37
2022-11-27T04:10:51.828Z,3.49
2022-11-27T04:15:50.630Z,2.92
2022-11-27T04:20:49.349Z,2.93
2022-11-27T04:25:49.073Z,2.55
2022-11-27T04:30:52.156Z,2.79
2022-11-27T04:35:51.776Z,2.89
2022-11-27T04:40:53.438Z,2.53
2022-11-27T04:45:52.147Z,2.21
2022-11-27T04:50:50.876Z,2.33
2022-11-27T04:55:51.388Z,2.31
2022-11-27T05:00:50.169Z,2.12
2022-11-27T05:05:58.855Z,1.97
2022-11-27T05:11:05.829Z,2.39
2022-11-27T05:16:05.879Z,2.36
2022-11-27T05:21:08.636Z,2.05
2022-11-27T05:26:07.393Z,2.00
2022-11-27T05:31:06.230Z,4.70
2022-11-27T05:36:05.293Z,2.55
2022-11-27T05:41:04.025Z,2.65
2022-11-27T05:46:07.327Z,2.02
2022-11-27T05:51:06.336Z,2.42
2022-11-27T05:56:14.143Z,1.85
2022-11-27T06:01:15.686Z,1.94
2022-11-27T06:06:17.094Z,1.87
2022-11-27T06:11:19.121Z,1.74
2022-11-27T06:16:24.378Z,2.04
2022-11-27T06:21:25.644Z,2.04
2022-11-27T06:26:27.369Z,2.47
2022-11-27T06:31:29.153Z,2.62
2022-11-27T06:36:31.698Z,2.82
2022-11-27T06:41:30.580Z,2.79
2022-11-27T06:46:30.161Z,3.06
2022-11-27T06:51:33.256Z,3.07
2022-11-27T06:56:32.480Z,3.08
2022-11-27T07:01:31.931Z,3.32
2022-11-27T07:06:30.835Z,3.04
2022-11-27T07:11:32.033Z,3.20
2022-11-27T07:16:34.034Z,3.36
2022-11-27T07:21:33.209Z,3.69
2022-11-27T07:26:32.127Z,3.71
2022-11-27T07:31:31.240Z,3.23
2022-11-27T07:36:31.170Z,3.48
2022-11-27T07:41:33.937Z,3.39
2022-11-27T07:46:35.536Z,3.62
2022-11-27T07:51:34.463Z,3.56
2022-11-27T07:56:33.185Z,3.60
2022-11-27T08:01:32.062Z,3.99
2022-11-27T08:06:30.910Z,4.08
2022-11-27T08:11:33.026Z,4.16
2022-11-27T08:16:32.893Z,3.83
2022-11-27T08:21:33.032Z,3.90
2022-11-27T08:26:31.838Z,4.25
2022-11-27T08:31:30.645Z,4.40
2022-11-27T08:36:29.538Z,4.39
2022-11-27T08:41:28.238Z,4.71
2022-11-27T08:46:27.964Z,4.73
2022-11-27T08:51:27.084Z,4.79
2022-11-27T08:56:26.325Z,4.82
2022-11-27T09:01:31.231Z,4.88
2022-11-27T09:06:33.186Z,4.54
2022-11-27T09:11:33.618Z,4.44
2022-11-27T09:16:32.973Z,4.83
2022-11-27T09:21:31.914Z,4.97
2022-11-27T09:26:31.172Z,5.40
2022-11-27T09:31:30.180Z,5.38
2022-11-27T09:36:29.020Z,5.40
2022-11-27T09:41:52.404Z,5.64
2022-11-27T09:46:52.599Z,5.82
2022-11-27T09:51:58.583Z,5.83
2022-11-27T09:56:58.714Z,5.79
2022-11-27T10:01:57.712Z,6.45
2022-11-27T10:07:38.922Z,6.32
2022-11-27T10:13:00.656Z,6.67
2022-11-27T10:18:17.987Z,10.11
2022-11-27T10:23:46.323Z,11.46
2022-11-27T10:29:11.451Z,11.70
2022-11-27T10:34:28.690Z,9.02
2022-11-27T10:39:49.419Z,8.35
2022-11-27T10:45:00.463Z,7.94
2022-11-27T10:49:59.638Z,7.76
2022-11-27T10:55:03.499Z,7.65
2022-11-27T11:00:15.112Z,7.82
2022-11-27T11:10:57.814Z,8.16
2022-11-27T11:16:09.718Z,8.24
2022-11-27T11:21:17.368Z,8.07
2022-11-27T11:26:40.357Z,8.12
2022-11-27T11:31:41.270Z,8.11
2022-11-27T11:36:41.466Z,8.53
2022-11-27T11:41:40.252Z,8.43
2022-11-27T11:46:40.117Z,8.84
2022-11-27T11:51:57.567Z,8.94
2022-11-27T11:57:00.244Z,9.07
2022-11-27T12:02:25.368Z,8.70
2022-11-27T12:07:54.246Z,8.63
2022-11-27T12:13:12.121Z,8.72
2022-11-27T12:18:13.457Z,8.94
2022-11-27T12:23:18.086Z,8.36
2022-11-27T12:28:20.042Z,8.66
2022-11-27T12:33:33.580Z,8.36
2022-11-27T12:38:50.461Z,8.47
2022-11-27T12:43:56.163Z,8.22
2022-11-27T12:49:05.544Z,8.30
2022-11-27T12:54:10.132Z,8.15
2022-11-27T12:59:39.354Z,8.09
2022-11-27T13:04:53.789Z,7.99
2022-11-27T13:10:21.769Z,8.16
2022-11-27T13:15:40.766Z,8.01
2022-11-27T13:20:46.230Z,8.04
2022-11-27T13:25:51.766Z,8.17
2022-11-27T13:30:53.479Z,8.08
2022-11-27T13:35:54.975Z,7.98
2022-11-27T13:40:58.579Z,7.97
2022-11-27T13:46:07.275Z,7.91
2022-11-27T13:51:08.484Z,7.79
2022-11-27T13:56:08.614Z,7.82
2022-11-27T14:01:22.547Z,7.56
2022-11-27T14:06:31.850Z,7.34
2022-11-27T14:11:37.165Z,7.23
2022-11-27T14:16:37.189Z,7.23
2022-11-27T14:21:41.893Z,7.20
2022-11-27T14:26:41.349Z,7.19
2022-11-27T14:31:40.307Z,7.21
2022-11-27T14:36:41.192Z,7.36
2022-11-27T14:41:40.002Z,7.35
2022-11-27T14:46:38.870Z,7.08
2022-11-27T14:51:37.842Z,6.86
2022-11-27T14:56:41.378Z,6.86
2022-11-27T15:01:40.133Z,6.67
2022-11-27T15:06:45.515Z,6.20
2022-11-27T15:11:56.012Z,6.11
2022-11-27T15:16:56.839Z,6.17
2022-11-27T15:21:57.221Z,6.23
2022-11-27T15:27:06.559Z,5.78
2022-11-27T15:32:23.534Z,6.01
2022-11-27T15:37:31.021Z,5.87
2022-11-27T15:42:30.379Z,5.28
2022-11-27T15:47:33.809Z,5.31
2022-11-27T15:52:33.382Z,5.30
2022-11-27T15:57:32.229Z,5.44
2022-11-27T16:02:31.169Z,5.47
2022-11-27T16:07:30.834Z,5.05
2022-11-27T16:12:29.614Z,5.13
2022-11-27T16:17:28.428Z,5.14
2022-11-27T16:22:27.186Z,4.82
2022-11-27T16:27:29.227Z,4.97
2022-11-27T16:32:30.303Z,4.65
2022-11-27T16:37:29.560Z,4.84
2022-11-27T16:42:28.821Z,4.79
2022-11-27T16:47:33.656Z,4.70
2022-11-27T16:52:39.335Z,4.50
2022-11-27T16:57:38.122Z,4.45
2022-11-27T17:02:37.944Z,4.59
2022-11-27T17:07:36.791Z,4.49
2022-11-27T17:12:35.662Z,4.55
2022-11-27T17:17:39.968Z,4.40
2022-11-27T17:22:39.690Z,4.53
2022-11-27T17:27:38.642Z,4.41
2022-11-27T17:32:37.421Z,4.39
2022-11-27T17:37:36.858Z,4.41
2022-11-27T17:42:35.629Z,4.32
2022-11-27T17:47:34.495Z,4.24
2022-11-27T17:52:33.300Z,4.16
2022-11-27T17:57:33.377Z,4.29
2022-11-27T18:02:33.268Z,4.24
2022-11-27T18:07:32.126Z,4.30
2022-11-27T18:12:30.945Z,4.10
2022-11-27T18:17:30.524Z,4.08
2022-11-27T18:22:31.181Z,4.22
2022-11-27T18:27:30.007Z,4.12
2022-11-27T18:32:28.713Z,3.95
2022-11-27T18:37:27.515Z,4.14
2022-11-27T18:42:26.943Z,4.16
2022-11-27T18:47:25.765Z,4.10
2022-11-27T18:52:24.737Z,4.06
2022-11-27T18:57:24.183Z,4.13
2022-11-27T19:02:23.077Z,4.10
2022-11-27T19:07:22.771Z,4.22
2022-11-27T19:12:21.581Z,4.09
2022-11-27T19:17:21.720Z,4.18
2022-11-27T19:22:21.015Z,4.05
2022-11-27T19:27:19.884Z,4.34
2022-11-27T19:32:19.812Z,4.44
2022-11-27T19:37:33.610Z,4.16
2022-11-27T19:42:33.254Z,4.16
2022-11-27T19:47:32.092Z,4.16
2022-11-27T19:52:30.958Z,4.48
2022-11-27T19:57:30.436Z,4.42
2022-11-27T20:02:30.520Z,5.20
2022-11-27T20:07:30.402Z,8.03
2022-11-27T20:12:30.946Z,5.86
2022-11-27T20:17:30.370Z,5.24
2022-11-27T20:22:30.609Z,4.95
2022-11-27T20:27:29.700Z,4.89
2022-11-27T20:32:29.429Z,4.80
2022-11-27T20:37:28.784Z,4.42
2022-11-27T20:42:27.578Z,4.63
2022-11-27T20:47:26.461Z,4.63
2022-11-27T20:52:26.602Z,4.51
2022-11-27T20:57:25.414Z,4.60
2022-11-27T21:02:24.245Z,4.75
2022-11-27T21:07:23.082Z,4.62
2022-11-27T21:12:22.405Z,4.63
2022-11-27T21:17:21.373Z,4.57
2022-11-27T21:22:20.817Z,4.61
2022-11-27T21:27:20.342Z,4.43
2022-11-27T21:32:22.553Z,4.43
2022-11-27T21:37:21.601Z,4.62
2022-11-27T21:42:20.461Z,4.37
2022-11-27T21:47:19.454Z,4.39
2022-11-27T21:52:18.364Z,4.53
2022-11-27T21:57:17.410Z,4.17
2022-11-27T22:02:16.245Z,4.16
2022-11-27T22:07:17.842Z,4.30
2022-11-27T22:12:16.673Z,4.41
2022-11-27T22:17:19.219Z,4.20
2022-11-27T22:22:18.104Z,4.17
2022-11-27T22:27:16.888Z,4.19
2022-11-27T22:32:15.816Z,4.19
2022-11-27T22:37:14.492Z,4.22
2022-11-27T22:42:13.464Z,4.88
2022-11-27T22:47:12.206Z,7.70
2022-11-27T22:52:11.075Z,5.38
2022-11-27T22:57:10.237Z,4.90
2022-11-27T23:02:09.210Z,4.59
2022-11-27T23:07:08.017Z,4.29
2022-11-27T23:12:06.976Z,4.36
2022-11-27T23:17:05.775Z,4.38
2022-11-27T23:22:04.534Z,4.37
2022-11-27T23:27:03.336Z,4.24
2022-11-27T23:32:02.165Z,4.15
2022-11-27T23:37:00.954Z,4.29
2022-11-27T23:41:59.830Z,4.13
2022-11-27T23:46:58.562Z,4.13
2022-11-27T23:51:58.792Z,4.26
2022-11-27T23:56:57.681Z,4.06
